Buoy 41936

sailwx.info

Track history (hours):
 
Tides and Currents Weather Stations Pressure Air Temp Water Temp Dewpoint Dewpoint Depression Visibility Wind Speed Wind Dir Waves Ship Positions

Drifting buoy 41936

Last reported at 2014-Oct-31 02:00 UTC. Time now 2014-Oct-31 06:13 UTC.
Position N 28°50' W 063°24'.

Barometer 1013.2 mb
Water temperature 26.5 ° C

Date/timePositionNaut miles runAvg speedWind from/ knotsBaromVisibWave heightAir tempDewpointWater temp
2014-Oct-31 02:00N 28°50' W 063°24'2 1.8 1013.2 26.5
2014-Oct-31 01:00N 28°49' W 063°26'0 0.0 1013.3 26.5
2014-Oct-30 23:00N 28°49' W 063°26'2 1.5 1013.8 26.6
2014-Oct-30 22:00N 28°48' W 063°26'3 1.0 1013.8 26.6
2014-Oct-30 19:00N 28°45' W 063°25'2 2.0 1013.3 26.7
2014-Oct-30 18:00N 28°43' W 063°23'1 0.2 1013.5 26.7
2014-Oct-30 15:00N 28°43' W 063°23'2 2.3 1016.1 26.6
2014-Oct-30 14:00N 28°42' W 063°20'0 0.0 1016.4 26.6
2014-Oct-30 13:00N 28°42' W 063°20'1 0.6 1016.3 26.6
2014-Oct-30 11:00N 28°42' W 063°22'0 0.1 1015.9 26.6
2014-Oct-30 09:00N 28°42' W 063°22'0 0.4 1015.5 26.6
2014-Oct-30 08:00N 28°42' W 063°22'0 0.1 1015.4 26.6
2014-Oct-30 07:00N 28°42' W 063°22'2 0.6 1015.8 26.6
2014-Oct-30 03:00N 28°40' W 063°23'0 0.0 1017.4 26.6
2014-Oct-30 02:00N 28°40' W 063°23'1 1.2 1017.9 26.6
2014-Oct-30 01:00N 28°39' W 063°24'0 0.0 1018.3 26.7
2014-Oct-30 00:00N 28°39' W 063°24'2 2.5 1018.4 26.7
2014-Oct-29 23:00N 28°37' W 063°24'0 0.1 1018.0 26.7
2014-Oct-29 22:00N 28°37' W 063°24'1 0.5 1018.0 26.7
2014-Oct-29 20:00N 28°36' W 063°23'4 2.2 1017.8 26.7
2014-Oct-29 18:00N 28°32' W 063°20'0 0.1 1018.0 26.7
2014-Oct-29 15:00N 28°32' W 063°20'2 1.9 1019.7 26.8
2014-Oct-29 14:00N 28°33' W 063°18'0 0.0 1020.0 26.8
2014-Oct-29 09:00N 28°32' W 063°18'3 1.3 1018.9 26.8
2014-Oct-29 07:00N 28°31' W 063°21'1 0.2 1018.6 26.8
2014-Oct-29 02:00N 28°30' W 063°21'2 2.1 1020.3 26.8
2014-Oct-29 01:00N 28°28' W 063°21'2 0.5 1020.3 26.8
2014-Oct-28 21:00N 28°26' W 063°20'1 1.2 1019.2 26.9
2014-Oct-28 20:00N 28°26' W 063°19'0 0.2 1019.1 26.9
2014-Oct-28 19:00N 28°25' W 063°19'1 1.2 1018.9 26.9
2014-Oct-28 18:00N 28°25' W 063°17'0 0.1 1019.1 26.9
2014-Oct-28 15:00N 28°25' W 063°17'0 0.2 1020.2 26.8
2014-Oct-28 14:00N 28°25' W 063°17'1 1.3 1020.2 26.8
2014-Oct-28 13:00N 28°24' W 063°16'0 0.1 1020.2 26.8
2014-Oct-28 10:00N 28°24' W 063°16'0 0.1 1018.2 26.8
2014-Oct-28 09:00N 28°24' W 063°16'2 1.1 1017.6 26.8
2014-Oct-28 07:00N 28°23' W 063°18'0 0.0 1017.0 26.8
2014-Oct-28 03:00N 28°23' W 063°18'0 0.3 1017.3 26.8
2014-Oct-28 02:00N 28°23' W 063°18'2 0.5 1017.3 26.9
2014-Oct-27 23:00N 28°22' W 063°19'2 1.0 1016.7 26.9
2014-Oct-27 21:00N 28°20' W 063°19'1 0.4 1015.8 26.9
2014-Oct-27 19:00N 28°19' W 063°19'0 0.0 1014.7 26.9
2014-Oct-27 18:00N 28°19' W 063°19'3 0.9 1014.4 26.9
2014-Oct-27 15:00N 28°17' W 063°17'0 0.3 1015.2 26.9
2014-Oct-27 14:00N 28°16' W 063°17'0 0.1 1015.2 26.9
2014-Oct-27 11:00N 28°17' W 063°17'1 0.3 1012.7 26.9
2014-Oct-27 09:00N 28°17' W 063°18'2 1.2 1012.2 26.9
2014-Oct-27 07:00N 28°15' W 063°20'0 0.0 1011.3 26.9
2014-Oct-27 06:00N 28°15' W 063°20'3 0.7 1011.5 26.9
2014-Oct-27 02:00N 28°16' W 063°23'0 0.0 1011.0 26.9
2014-Oct-27 01:00N 28°16' W 063°23'2 1.8 1010.4 26.8
2014-Oct-27 00:00N 28°14' W 063°22'0 0.0 1010.7 26.9
2014-Oct-26 23:00N 28°14' W 063°22'1 0.6 1009.4 26.9
2014-Oct-26 22:00N 28°13' W 063°23'2 1.5 1008.9 26.9
2014-Oct-26 21:00N 28°12' W 063°23'0 0.0 1009.0 26.9
2014-Oct-26 20:00N 28°12' W 063°23'1 1.3 1008.4 26.9
2014-Oct-26 19:00N 28°11' W 063°24'0 0.0 1008.3 26.9
2014-Oct-26 17:00N 28°11' W 063°24'1 0.4 1008.5 26.9
2014-Oct-26 14:00N 28°09' W 063°23'0 0.0 1009.2 27.0
2014-Oct-26 11:00N 28°09' W 063°23'1 1.0 1007.9 26.9
2014-Oct-26 10:00N 28°10' W 063°22'2 1.7 1007.3 26.9
2014-Oct-26 09:00N 28°09' W 063°24'0 0.4 1006.9 26.9
2014-Oct-26 08:00N 28°10' W 063°24'1 1.0 1007.2 26.9
2014-Oct-26 07:00N 28°09' W 063°25'0 0.0 1007.1 26.9
2014-Oct-26 06:00N 28°09' W 063°25'8 2.1 1007.6 26.9
2014-Oct-26 02:00N 28°06' W 063°33'0 0.0 1009.5 26.9
2014-Oct-26 01:00N 28°06' W 063°33'0 0.0 1009.7 26.9
2014-Oct-26 00:00N 28°06' W 063°33'2 0.8 1009.5 26.9
2014-Oct-25 22:00N 28°04' W 063°33'1 1.5 1009.2 26.9
2014-Oct-25 21:00N 28°04' W 063°35'2 2.1 1009.3 27.0
2014-Oct-25 20:00N 28°02' W 063°34'1 1.1 1009.4 27.0
2014-Oct-25 19:00N 28°00' W 063°35'0 0.0 1009.4 27.0
2014-Oct-25 17:00N 28°00' W 063°35'2 0.9 1010.4 27.0
2014-Oct-25 15:00N 27°59' W 063°33'1 1.2 1011.9 26.9
2014-Oct-25 14:00N 27°59' W 063°32'1 0.2 1012.4 26.9
2014-Oct-25 11:00N 27°58' W 063°33'1 0.6 1012.1 26.8
2014-Oct-25 10:00N 27°59' W 063°32'1 1.3 1012.1 26.8
2014-Oct-25 09:00N 27°59' W 063°33'3 3.4 1011.8 26.8
2014-Oct-25 08:00N 27°59' W 063°37'0 0.0 1011.6 26.8
2014-Oct-25 06:00N 27°59' W 063°37'0 0.0 1012.4 26.8
2014-Oct-25 05:00N 27°59' W 063°37'1 0.4 1012.6 26.8
2014-Oct-25 03:00N 27°58' W 063°37'0 0.0 1013.9 26.8
2014-Oct-25 02:00N 27°58' W 063°37'2 0.5 1013.8 26.8
2014-Oct-24 21:00N 27°56' W 063°39'2 2.4 1012.9 26.9
2014-Oct-24 20:00N 27°54' W 063°40'0 0.0 1012.7 26.9
2014-Oct-24 18:00N 27°54' W 063°40'0 0.0 1012.9 26.9
2014-Oct-24 17:00N 27°54' W 063°40'1 1.2 1013.3 26.9
2014-Oct-24 16:00N 27°53' W 063°40'0 0.0 1014.2 26.9
2014-Oct-24 15:00N 27°53' W 063°40'0 0.0 1014.7 26.9
2014-Oct-24 14:00N 27°53' W 063°40'0 0.0 1014.8 26.9
2014-Oct-24 13:00N 27°53' W 063°40'1 0.5 1014.6 26.9
2014-Oct-24 11:00N 27°52' W 063°39'1 0.9 1013.5 26.8
2014-Oct-24 10:00N 27°53' W 063°39'0 0.0 1013.2 26.8
2014-Oct-24 09:00N 27°53' W 063°39'0 0.1 1013.1 26.8
2014-Oct-24 08:00N 27°53' W 063°39'4 0.6 1012.9 26.8
2014-Oct-24 02:00N 27°54' W 063°43'3 0.7 1014.7 26.8
2014-Oct-23 22:00N 27°52' W 063°45'2 1.0 1013.4 26.8
2014-Oct-23 20:00N 27°51' W 063°47'1 0.6 1013.0 26.8
2014-Oct-23 18:00N 27°50' W 063°47'1 0.5 1013.1 26.8
2014-Oct-23 15:00N 27°48' W 063°47'0 0.0 1014.9 26.8
2014-Oct-23 14:00N 27°48' W 063°47'1 0.7 1015.1 26.8
2014-Oct-23 13:00N 27°48' W 063°46'2 0.5 1014.9 26.8
2014-Oct-23 10:00N 27°49' W 063°45'2 0.9 1013.8 26.8
2014-Oct-23 08:00N 27°50' W 063°47'0 0.0 1013.1 26.8
2014-Oct-23 06:00N 27°50' W 063°47'4 1.0 1014.3 26.8
2014-Oct-23 02:00N 27°49' W 063°51'3 2.5 1015.8 26.8
2014-Oct-23 01:00N 27°48' W 063°53'0 0.0 1015.6 26.8
2014-Oct-23 00:00N 27°48' W 063°53'0 0.0 1015.5 26.8
2014-Oct-22 23:00N 27°48' W 063°53'2 1.8 1015.2 26.8
2014-Oct-22 22:00N 27°47' W 063°52'1 0.3 1015.2 26.9
2014-Oct-22 18:00N 27°46' W 063°53'1 0.9 1015.5 26.9
2014-Oct-22 17:00N 27°46' W 063°52'1 0.3 1015.5 26.9
2014-Oct-22 15:00N 27°46' W 063°53'1 0.9 1017.1 26.9
2014-Oct-22 14:00N 27°45' W 063°53'0 0.0 1017.1 26.8
2014-Oct-22 11:00N 27°45' W 063°53'0 0.1 1016.1 26.8
2014-Oct-22 10:00N 27°45' W 063°53'0 0.5 1015.6 26.8
2014-Oct-22 09:00N 27°46' W 063°53'0 0.4 1015.3 26.8
2014-Oct-22 08:00N 27°46' W 063°53'0 0.4 1015.2 26.8
2014-Oct-22 07:00N 27°46' W 063°53'2 0.5 1015.8 26.8
2014-Oct-22 02:00N 27°45' W 063°56'2 0.8 1017.8 26.9
2014-Oct-22 00:00N 27°45' W 063°57'0 0.1 1017.0 26.9
2014-Oct-21 23:00N 27°45' W 063°57'1 0.3 1016.6 26.9
2014-Oct-21 18:00N 27°43' W 063°58'1 0.2 1016.1 27.2
2014-Oct-21 14:00N 27°43' W 063°58'0 0.0 1017.8 26.9
2014-Oct-21 11:00N 27°43' W 063°58'0 0.2 1017.0 26.8
2014-Oct-21 10:00N 27°43' W 063°58'1 0.7 1016.5 26.8
2014-Oct-21 09:00N 27°43' W 063°59'0 0.0 1016.2 26.8
2014-Oct-21 08:00N 27°43' W 063°59'0 0.1 1016.0 26.8
2014-Oct-21 07:00N 27°43' W 063°59'2 0.5 1015.9 26.8
2014-Oct-21 03:00N 27°42' W 064°01'1 0.6 1017.1 26.8
2014-Oct-21 02:00N 27°42' W 064°01'   1017.4 26.8
Track history (hours):
 
Tides and Currents Weather Stations Pressure Air Temp Water Temp Dewpoint Dewpoint Depression Visibility Wind Speed Wind Dir Waves Ship Positions

Drifting buoy 41936

Last reported at 2014-Oct-31 02:00 UTC. Time now 2014-Oct-31 06:13 UTC.
Position N 28°50' W 063°24'.

Barometer 1013.2 mb
Water temperature 26.5 ° C

Date/timePositionNaut miles runAvg speedWind from/ knotsBaromVisibWave heightAir tempDewpointWater temp
2014-Oct-31 02:00N 28°50' W 063°24'2 1.8 1013.2 26.5
2014-Oct-31 01:00N 28°49' W 063°26'0 0.0 1013.3 26.5
2014-Oct-30 23:00N 28°49' W 063°26'2 1.5 1013.8 26.6
2014-Oct-30 22:00N 28°48' W 063°26'3 1.0 1013.8 26.6
2014-Oct-30 19:00N 28°45' W 063°25'2 2.0 1013.3 26.7
2014-Oct-30 18:00N 28°43' W 063°23'1 0.2 1013.5 26.7
2014-Oct-30 15:00N 28°43' W 063°23'2 2.3 1016.1 26.6
2014-Oct-30 14:00N 28°42' W 063°20'0 0.0 1016.4 26.6
2014-Oct-30 13:00N 28°42' W 063°20'1 0.6 1016.3 26.6
2014-Oct-30 11:00N 28°42' W 063°22'0 0.1 1015.9 26.6
2014-Oct-30 09:00N 28°42' W 063°22'0 0.4 1015.5 26.6
2014-Oct-30 08:00N 28°42' W 063°22'0 0.1 1015.4 26.6
2014-Oct-30 07:00N 28°42' W 063°22'2 0.6 1015.8 26.6
2014-Oct-30 03:00N 28°40' W 063°23'0 0.0 1017.4 26.6
2014-Oct-30 02:00N 28°40' W 063°23'1 1.2 1017.9 26.6
2014-Oct-30 01:00N 28°39' W 063°24'0 0.0 1018.3 26.7
2014-Oct-30 00:00N 28°39' W 063°24'2 2.5 1018.4 26.7
2014-Oct-29 23:00N 28°37' W 063°24'0 0.1 1018.0 26.7
2014-Oct-29 22:00N 28°37' W 063°24'1 0.5 1018.0 26.7
2014-Oct-29 20:00N 28°36' W 063°23'4 2.2 1017.8 26.7
2014-Oct-29 18:00N 28°32' W 063°20'0 0.1 1018.0 26.7
2014-Oct-29 15:00N 28°32' W 063°20'2 1.9 1019.7 26.8
2014-Oct-29 14:00N 28°33' W 063°18'0 0.0 1020.0 26.8
2014-Oct-29 09:00N 28°32' W 063°18'3 1.3 1018.9 26.8
2014-Oct-29 07:00N 28°31' W 063°21'1 0.2 1018.6 26.8
2014-Oct-29 02:00N 28°30' W 063°21'2 2.1 1020.3 26.8
2014-Oct-29 01:00N 28°28' W 063°21'2 0.5 1020.3 26.8
2014-Oct-28 21:00N 28°26' W 063°20'1 1.2 1019.2 26.9
2014-Oct-28 20:00N 28°26' W 063°19'0 0.2 1019.1 26.9
2014-Oct-28 19:00N 28°25' W 063°19'1 1.2 1018.9 26.9
2014-Oct-28 18:00N 28°25' W 063°17'0 0.1 1019.1 26.9
2014-Oct-28 15:00N 28°25' W 063°17'0 0.2 1020.2 26.8
2014-Oct-28 14:00N 28°25' W 063°17'1 1.3 1020.2 26.8
2014-Oct-28 13:00N 28°24' W 063°16'0 0.1 1020.2 26.8
2014-Oct-28 10:00N 28°24' W 063°16'0 0.1 1018.2 26.8
2014-Oct-28 09:00N 28°24' W 063°16'2 1.1 1017.6 26.8
2014-Oct-28 07:00N 28°23' W 063°18'0 0.0 1017.0 26.8
2014-Oct-28 03:00N 28°23' W 063°18'0 0.3 1017.3 26.8
2014-Oct-28 02:00N 28°23' W 063°18'2 0.5 1017.3 26.9
2014-Oct-27 23:00N 28°22' W 063°19'2 1.0 1016.7 26.9
2014-Oct-27 21:00N 28°20' W 063°19'1 0.4 1015.8 26.9
2014-Oct-27 19:00N 28°19' W 063°19'0 0.0 1014.7 26.9
2014-Oct-27 18:00N 28°19' W 063°19'3 0.9 1014.4 26.9
2014-Oct-27 15:00N 28°17' W 063°17'0 0.3 1015.2 26.9
2014-Oct-27 14:00N 28°16' W 063°17'0 0.1 1015.2 26.9
2014-Oct-27 11:00N 28°17' W 063°17'1 0.3 1012.7 26.9
2014-Oct-27 09:00N 28°17' W 063°18'2 1.2 1012.2 26.9
2014-Oct-27 07:00N 28°15' W 063°20'0 0.0 1011.3 26.9
2014-Oct-27 06:00N 28°15' W 063°20'3 0.7 1011.5 26.9
2014-Oct-27 02:00N 28°16' W 063°23'0 0.0 1011.0 26.9
2014-Oct-27 01:00N 28°16' W 063°23'2 1.8 1010.4 26.8
2014-Oct-27 00:00N 28°14' W 063°22'0 0.0 1010.7 26.9
2014-Oct-26 23:00N 28°14' W 063°22'1 0.6 1009.4 26.9
2014-Oct-26 22:00N 28°13' W 063°23'2 1.5 1008.9 26.9
2014-Oct-26 21:00N 28°12' W 063°23'0 0.0 1009.0 26.9
2014-Oct-26 20:00N 28°12' W 063°23'1 1.3 1008.4 26.9
2014-Oct-26 19:00N 28°11' W 063°24'0 0.0 1008.3 26.9
2014-Oct-26 17:00N 28°11' W 063°24'1 0.4 1008.5 26.9
2014-Oct-26 14:00N 28°09' W 063°23'0 0.0 1009.2 27.0
2014-Oct-26 11:00N 28°09' W 063°23'1 1.0 1007.9 26.9
2014-Oct-26 10:00N 28°10' W 063°22'2 1.7 1007.3 26.9
2014-Oct-26 09:00N 28°09' W 063°24'0 0.4 1006.9 26.9
2014-Oct-26 08:00N 28°10' W 063°24'1 1.0 1007.2 26.9
2014-Oct-26 07:00N 28°09' W 063°25'0 0.0 1007.1 26.9
2014-Oct-26 06:00N 28°09' W 063°25'8 2.1 1007.6 26.9
2014-Oct-26 02:00N 28°06' W 063°33'0 0.0 1009.5 26.9
2014-Oct-26 01:00N 28°06' W 063°33'0 0.0 1009.7 26.9
2014-Oct-26 00:00N 28°06' W 063°33'2 0.8 1009.5 26.9
2014-Oct-25 22:00N 28°04' W 063°33'1 1.5 1009.2 26.9
2014-Oct-25 21:00N 28°04' W 063°35'2 2.1 1009.3 27.0
2014-Oct-25 20:00N 28°02' W 063°34'1 1.1 1009.4 27.0
2014-Oct-25 19:00N 28°00' W 063°35'0 0.0 1009.4 27.0
2014-Oct-25 17:00N 28°00' W 063°35'2 0.9 1010.4 27.0
2014-Oct-25 15:00N 27°59' W 063°33'1 1.2 1011.9 26.9
2014-Oct-25 14:00N 27°59' W 063°32'1 0.2 1012.4 26.9
2014-Oct-25 11:00N 27°58' W 063°33'1 0.6 1012.1 26.8
2014-Oct-25 10:00N 27°59' W 063°32'1 1.3 1012.1 26.8
2014-Oct-25 09:00N 27°59' W 063°33'3 3.4 1011.8 26.8
2014-Oct-25 08:00N 27°59' W 063°37'0 0.0 1011.6 26.8
2014-Oct-25 06:00N 27°59' W 063°37'0 0.0 1012.4 26.8
2014-Oct-25 05:00N 27°59' W 063°37'1 0.4 1012.6 26.8
2014-Oct-25 03:00N 27°58' W 063°37'0 0.0 1013.9 26.8
2014-Oct-25 02:00N 27°58' W 063°37'2 0.5 1013.8 26.8
2014-Oct-24 21:00N 27°56' W 063°39'2 2.4 1012.9 26.9
2014-Oct-24 20:00N 27°54' W 063°40'0 0.0 1012.7 26.9
2014-Oct-24 18:00N 27°54' W 063°40'0 0.0 1012.9 26.9
2014-Oct-24 17:00N 27°54' W 063°40'1 1.2 1013.3 26.9
2014-Oct-24 16:00N 27°53' W 063°40'0 0.0 1014.2 26.9
2014-Oct-24 15:00N 27°53' W 063°40'0 0.0 1014.7 26.9
2014-Oct-24 14:00N 27°53' W 063°40'0 0.0 1014.8 26.9
2014-Oct-24 13:00N 27°53' W 063°40'1 0.5 1014.6 26.9
2014-Oct-24 11:00N 27°52' W 063°39'1 0.9 1013.5 26.8
2014-Oct-24 10:00N 27°53' W 063°39'0 0.0 1013.2 26.8
2014-Oct-24 09:00N 27°53' W 063°39'0 0.1 1013.1 26.8
2014-Oct-24 08:00N 27°53' W 063°39'4 0.6 1012.9 26.8
2014-Oct-24 02:00N 27°54' W 063°43'3 0.7 1014.7 26.8
2014-Oct-23 22:00N 27°52' W 063°45'2 1.0 1013.4 26.8
2014-Oct-23 20:00N 27°51' W 063°47'1 0.6 1013.0 26.8
2014-Oct-23 18:00N 27°50' W 063°47'1 0.5 1013.1 26.8
2014-Oct-23 15:00N 27°48' W 063°47'0 0.0 1014.9 26.8
2014-Oct-23 14:00N 27°48' W 063°47'1 0.7 1015.1 26.8
2014-Oct-23 13:00N 27°48' W 063°46'2 0.5 1014.9 26.8
2014-Oct-23 10:00N 27°49' W 063°45'2 0.9 1013.8 26.8
2014-Oct-23 08:00N 27°50' W 063°47'0 0.0 1013.1 26.8
2014-Oct-23 06:00N 27°50' W 063°47'4 1.0 1014.3 26.8
2014-Oct-23 02:00N 27°49' W 063°51'3 2.5 1015.8 26.8
2014-Oct-23 01:00N 27°48' W 063°53'0 0.0 1015.6 26.8
2014-Oct-23 00:00N 27°48' W 063°53'0 0.0 1015.5 26.8
2014-Oct-22 23:00N 27°48' W 063°53'2 1.8 1015.2 26.8
2014-Oct-22 22:00N 27°47' W 063°52'1 0.3 1015.2 26.9
2014-Oct-22 18:00N 27°46' W 063°53'1 0.9 1015.5 26.9
2014-Oct-22 17:00N 27°46' W 063°52'1 0.3 1015.5 26.9
2014-Oct-22 15:00N 27°46' W 063°53'1 0.9 1017.1 26.9
2014-Oct-22 14:00N 27°45' W 063°53'0 0.0 1017.1 26.8
2014-Oct-22 11:00N 27°45' W 063°53'0 0.1 1016.1 26.8
2014-Oct-22 10:00N 27°45' W 063°53'0 0.5 1015.6 26.8
2014-Oct-22 09:00N 27°46' W 063°53'0 0.4 1015.3 26.8
2014-Oct-22 08:00N 27°46' W 063°53'0 0.4 1015.2 26.8
2014-Oct-22 07:00N 27°46' W 063°53'2 0.5 1015.8 26.8
2014-Oct-22 02:00N 27°45' W 063°56'2 0.8 1017.8 26.9
2014-Oct-22 00:00N 27°45' W 063°57'0 0.1 1017.0 26.9
2014-Oct-21 23:00N 27°45' W 063°57'1 0.3 1016.6 26.9
2014-Oct-21 18:00N 27°43' W 063°58'1 0.2 1016.1 27.2
2014-Oct-21 14:00N 27°43' W 063°58'0 0.0 1017.8 26.9
2014-Oct-21 11:00N 27°43' W 063°58'0 0.2 1017.0 26.8
2014-Oct-21 10:00N 27°43' W 063°58'1 0.7 1016.5 26.8
2014-Oct-21 09:00N 27°43' W 063°59'0 0.0 1016.2 26.8
2014-Oct-21 08:00N 27°43' W 063°59'0 0.1 1016.0 26.8
2014-Oct-21 07:00N 27°43' W 063°59'2 0.5 1015.9 26.8
2014-Oct-21 03:00N 27°42' W 064°01'1 0.6 1017.1 26.8
2014-Oct-21 02:00N 27°42' W 064°01'   1017.4 26.8

Dump ship's entire track history